sensor_id;sensor_type;location;lat;lon;timestamp;P1;durP1;ratioP1;P2;durP2;ratioP2
44446;SDS011;30152;52.066;5.358;2023-07-09T06:45:32;12.57;;;6.50;;
44446;SDS011;30152;52.066;5.358;2023-07-09T06:47:59;14.27;;;7.30;;
44446;SDS011;30152;52.066;5.358;2023-07-09T06:50:25;10.88;;;5.90;;
44446;SDS011;30152;52.066;5.358;2023-07-09T06:52:51;12.15;;;5.88;;
44446;SDS011;30152;52.066;5.358;2023-07-09T06:55:17;12.38;;;5.95;;
44446;SDS011;30152;52.066;5.358;2023-07-09T06:57:42;11.23;;;6.75;;
44446;SDS011;30152;52.066;5.358;2023-07-09T07:00:08;14.45;;;7.60;;
44446;SDS011;30152;52.066;5.358;2023-07-09T07:02:35;11.98;;;7.00;;
44446;SDS011;30152;52.066;5.358;2023-07-09T07:05:01;10.98;;;6.85;;
44446;SDS011;30152;52.066;5.358;2023-07-09T07:07:26;14.38;;;7.47;;
44446;SDS011;30152;52.066;5.358;2023-07-09T07:09:52;12.40;;;6.88;;
44446;SDS011;30152;52.066;5.358;2023-07-09T07:12:24;14.23;;;7.05;;
44446;SDS011;30152;52.066;5.358;2023-07-09T07:14:52;14.10;;;6.78;;
44446;SDS011;30152;52.066;5.358;2023-07-09T07:17:18;12.88;;;7.07;;
44446;SDS011;30152;52.066;5.358;2023-07-09T07:19:44;14.32;;;6.22;;
44446;SDS011;30152;52.066;5.358;2023-07-09T07:22:10;14.98;;;6.65;;
44446;SDS011;30152;52.066;5.358;2023-07-09T07:24:35;13.75;;;6.53;;
44446;SDS011;30152;52.066;5.358;2023-07-09T07:27:01;11.65;;;6.45;;
44446;SDS011;30152;52.066;5.358;2023-07-09T07:29:26;12.07;;;6.10;;
44446;SDS011;30152;52.066;5.358;2023-07-09T07:31:53;12.13;;;6.43;;
44446;SDS011;30152;52.066;5.358;2023-07-09T07:34:19;11.43;;;6.25;;
44446;SDS011;30152;52.066;5.358;2023-07-09T07:36:45;11.68;;;5.82;;
44446;SDS011;30152;52.066;5.358;2023-07-09T07:39:12;13.98;;;6.20;;
44446;SDS011;30152;52.066;5.358;2023-07-09T07:41:37;11.43;;;5.70;;
44446;SDS011;30152;52.066;5.358;2023-07-09T07:44:03;13.18;;;5.65;;
44446;SDS011;30152;52.066;5.358;2023-07-09T07:46:29;11.32;;;4.55;;
44446;SDS011;30152;52.066;5.358;2023-07-09T07:48:57;13.25;;;5.45;;
44446;SDS011;30152;52.066;5.358;2023-07-09T07:51:23;13.55;;;5.00;;
44446;SDS011;30152;52.066;5.358;2023-07-09T07:53:48;11.88;;;4.70;;
44446;SDS011;30152;52.066;5.358;2023-07-09T07:56:14;11.38;;;4.78;;
44446;SDS011;30152;52.066;5.358;2023-07-09T07:58:39;9.32;;;4.32;;
44446;SDS011;30152;52.066;5.358;2023-07-09T08:01:05;9.80;;;4.72;;
44446;SDS011;30152;52.066;5.358;2023-07-09T08:03:31;12.52;;;5.53;;
44446;SDS011;30152;52.066;5.358;2023-07-09T08:05:57;8.95;;;4.45;;
44446;SDS011;30152;52.066;5.358;2023-07-09T08:08:23;10.57;;;4.80;;
44446;SDS011;30152;52.066;5.358;2023-07-09T08:10:59;9.73;;;4.95;;
44446;SDS011;30152;52.066;5.358;2023-07-09T08:13:26;10.88;;;4.75;;
44446;SDS011;30152;52.066;5.358;2023-07-09T08:15:51;9.40;;;5.18;;
44446;SDS011;30152;52.066;5.358;2023-07-09T08:18:17;9.77;;;4.10;;
44446;SDS011;30152;52.066;5.358;2023-07-09T08:20:43;11.57;;;4.95;;
44446;SDS011;30152;52.066;5.358;2023-07-09T08:23:09;9.68;;;4.78;;
44446;SDS011;30152;52.066;5.358;2023-07-09T08:25:35;10.07;;;4.40;;
44446;SDS011;30152;52.066;5.358;2023-07-09T08:28:00;10.73;;;4.28;;
44446;SDS011;30152;52.066;5.358;2023-07-09T08:30:26;10.68;;;4.13;;
44446;SDS011;30152;52.066;5.358;2023-07-09T08:32:51;8.68;;;4.15;;
44446;SDS011;30152;52.066;5.358;2023-07-09T08:35:17;9.35;;;4.30;;
44446;SDS011;30152;52.066;5.358;2023-07-09T08:37:42;10.77;;;4.22;;
44446;SDS011;30152;52.066;5.358;2023-07-09T08:40:15;8.90;;;4.45;;
44446;SDS011;30152;52.066;5.358;2023-07-09T08:42:43;9.48;;;4.57;;
44446;SDS011;30152;52.066;5.358;2023-07-09T08:48:08;10.45;;;5.03;;
44446;SDS011;30152;52.066;5.358;2023-07-09T08:50:43;8.48;;;4.45;;
44446;SDS011;30152;52.066;5.358;2023-07-09T08:53:18;12.43;;;5.30;;
44446;SDS011;30152;52.066;5.358;2023-07-09T08:55:47;11.25;;;5.55;;
44446;SDS011;30152;52.066;5.358;2023-07-09T08:58:21;14.07;;;5.50;;
44446;SDS011;30152;52.066;5.358;2023-07-09T09:03:40;12.45;;;5.28;;
44446;SDS011;30152;52.066;5.358;2023-07-09T09:06:16;10.27;;;5.28;;
44446;SDS011;30152;52.066;5.358;2023-07-09T09:13:56;8.93;;;4.53;;
44446;SDS011;30152;52.066;5.358;2023-07-09T09:16:27;8.50;;;4.72;;
44446;SDS011;30152;52.066;5.358;2023-07-09T09:18:55;8.27;;;4.55;;
44446;SDS011;30152;52.066;5.358;2023-07-09T09:21:31;8.75;;;3.92;;
44446;SDS011;30152;52.066;5.358;2023-07-09T09:24:02;12.02;;;4.82;;
44446;SDS011;30152;52.066;5.358;2023-07-09T09:26:38;12.50;;;4.90;;
44446;SDS011;30152;52.066;5.358;2023-07-09T09:29:13;10.65;;;5.68;;
44446;SDS011;30152;52.066;5.358;2023-07-09T09:31:40;9.98;;;5.00;;
44446;SDS011;30152;52.066;5.358;2023-07-09T09:34:16;10.45;;;5.13;;
44446;SDS011;30152;52.066;5.358;2023-07-09T09:37:00;9.68;;;5.07;;
44446;SDS011;30152;52.066;5.358;2023-07-09T09:39:26;9.73;;;5.63;;
44446;SDS011;30152;52.066;5.358;2023-07-09T09:41:53;9.85;;;4.97;;
44446;SDS011;30152;52.066;5.358;2023-07-09T09:44:24;9.27;;;5.20;;
44446;SDS011;30152;52.066;5.358;2023-07-09T09:46:52;10.50;;;5.78;;
44446;SDS011;30152;52.066;5.358;2023-07-09T09:49:21;9.68;;;4.65;;
44446;SDS011;30152;52.066;5.358;2023-07-09T09:51:47;10.38;;;4.60;;
44446;SDS011;30152;52.066;5.358;2023-07-09T09:54:17;9.77;;;5.07;;
44446;SDS011;30152;52.066;5.358;2023-07-09T09:56:45;9.43;;;5.15;;
44446;SDS011;30152;52.066;5.358;2023-07-09T09:59:16;11.05;;;5.05;;
44446;SDS011;30152;52.066;5.358;2023-07-09T10:01:45;9.77;;;4.87;;
44446;SDS011;30152;52.066;5.358;2023-07-09T10:04:14;9.35;;;4.68;;
44446;SDS011;30152;52.066;5.358;2023-07-09T10:06:43;11.45;;;5.50;;
44446;SDS011;30152;52.066;5.358;2023-07-09T10:14:59;9.77;;;4.57;;
44446;SDS011;30152;52.066;5.358;2023-07-09T10:20:43;8.30;;;4.40;;
44446;SDS011;30152;52.066;5.358;2023-07-09T10:26:13;13.30;;;5.10;;
44446;SDS011;30152;52.066;5.358;2023-07-09T10:29:00;11.10;;;4.97;;
44446;SDS011;30152;52.066;5.358;2023-07-09T10:32:03;10.30;;;4.38;;
44446;SDS011;30152;52.066;5.358;2023-07-09T10:34:39;11.35;;;4.82;;
44446;SDS011;30152;52.066;5.358;2023-07-09T10:37:35;11.70;;;4.90;;
44446;SDS011;30152;52.066;5.358;2023-07-09T10:40:14;9.60;;;5.28;;
44446;SDS011;30152;52.066;5.358;2023-07-09T10:42:44;9.60;;;4.75;;
44446;SDS011;30152;52.066;5.358;2023-07-09T10:45:14;10.20;;;4.85;;
44446;SDS011;30152;52.066;5.358;2023-07-09T10:47:49;10.05;;;5.10;;
44446;SDS011;30152;52.066;5.358;2023-07-09T10:50:37;9.90;;;4.88;;
44446;SDS011;30152;52.066;5.358;2023-07-09T10:53:18;11.70;;;5.10;;
44446;SDS011;30152;52.066;5.358;2023-07-09T10:56:19;10.63;;;6.00;;
44446;SDS011;30152;52.066;5.358;2023-07-09T10:59:30;11.65;;;5.57;;
44446;SDS011;30152;52.066;5.358;2023-07-09T11:04:20;10.93;;;4.88;;
44446;SDS011;30152;52.066;5.358;2023-07-09T11:06:54;9.50;;;4.57;;
44446;SDS011;30152;52.066;5.358;2023-07-09T11:09:24;10.80;;;5.20;;
44446;SDS011;30152;52.066;5.358;2023-07-09T11:11:54;11.82;;;4.40;;
44446;SDS011;30152;52.066;5.358;2023-07-09T11:16:57;9.48;;;4.82;;
44446;SDS011;30152;52.066;5.358;2023-07-09T11:19:25;9.48;;;4.65;;
44446;SDS011;30152;52.066;5.358;2023-07-09T11:22:05;10.45;;;4.75;;
44446;SDS011;30152;52.066;5.358;2023-07-09T11:25:44;10.23;;;5.22;;
44446;SDS011;30152;52.066;5.358;2023-07-09T11:27:51;9.35;;;4.75;;
44446;SDS011;30152;52.066;5.358;2023-07-09T11:30:22;9.53;;;5.67;;
44446;SDS011;30152;52.066;5.358;2023-07-09T11:32:56;10.20;;;5.38;;
44446;SDS011;30152;52.066;5.358;2023-07-09T11:35:30;9.13;;;4.63;;
44446;SDS011;30152;52.066;5.358;2023-07-09T11:38:19;9.82;;;4.78;;
44446;SDS011;30152;52.066;5.358;2023-07-09T11:40:47;10.98;;;5.22;;
44446;SDS011;30152;52.066;5.358;2023-07-09T11:43:27;7.93;;;4.60;;
44446;SDS011;30152;52.066;5.358;2023-07-09T11:46:10;13.13;;;4.65;;
44446;SDS011;30152;52.066;5.358;2023-07-09T11:48:37;10.07;;;4.90;;
44446;SDS011;30152;52.066;5.358;2023-07-09T11:51:08;11.25;;;4.82;;
44446;SDS011;30152;52.066;5.358;2023-07-09T11:53:47;10.65;;;4.88;;
44446;SDS011;30152;52.066;5.358;2023-07-09T11:56:20;9.50;;;4.45;;
44446;SDS011;30152;52.066;5.358;2023-07-09T11:58:48;7.85;;;4.55;;
44446;SDS011;30152;52.066;5.358;2023-07-09T12:01:22;8.38;;;4.82;;
44446;SDS011;30152;52.066;5.358;2023-07-09T12:08:48;12.25;;;5.93;;
44446;SDS011;30152;52.066;5.358;2023-07-09T12:11:22;10.02;;;6.32;;
44446;SDS011;30152;52.066;5.358;2023-07-09T12:14:05;11.63;;;6.15;;
44446;SDS011;30152;52.066;5.358;2023-07-09T12:16:36;10.57;;;6.65;;
44446;SDS011;30152;52.066;5.358;2023-07-09T12:19:03;11.25;;;6.18;;
44446;SDS011;30152;52.066;5.358;2023-07-09T12:21:29;10.40;;;5.95;;
44446;SDS011;30152;52.066;5.358;2023-07-09T12:23:56;10.88;;;6.03;;
44446;SDS011;30152;52.066;5.358;2023-07-09T12:26:25;12.10;;;6.68;;
44446;SDS011;30152;52.066;5.358;2023-07-09T12:28:54;10.52;;;5.35;;
44446;SDS011;30152;52.066;5.358;2023-07-09T12:31:26;12.10;;;6.22;;
44446;SDS011;30152;52.066;5.358;2023-07-09T12:33:53;11.35;;;5.57;;
44446;SDS011;30152;52.066;5.358;2023-07-09T12:36:20;10.93;;;6.40;;
44446;SDS011;30152;52.066;5.358;2023-07-09T12:38:48;11.07;;;6.07;;
44446;SDS011;30152;52.066;5.358;2023-07-09T12:41:17;9.07;;;6.05;;
44446;SDS011;30152;52.066;5.358;2023-07-09T12:43:47;11.27;;;5.75;;
44446;SDS011;30152;52.066;5.358;2023-07-09T12:46:14;10.40;;;5.60;;
44446;SDS011;30152;52.066;5.358;2023-07-09T12:48:40;9.52;;;5.63;;
44446;SDS011;30152;52.066;5.358;2023-07-09T12:51:06;10.38;;;5.93;;
44446;SDS011;30152;52.066;5.358;2023-07-09T12:53:36;8.88;;;4.93;;
44446;SDS011;30152;52.066;5.358;2023-07-09T12:56:02;11.77;;;4.75;;
44446;SDS011;30152;52.066;5.358;2023-07-09T12:58:36;13.35;;;5.35;;
44446;SDS011;30152;52.066;5.358;2023-07-09T13:01:14;8.57;;;4.55;;
44446;SDS011;30152;52.066;5.358;2023-07-09T13:03:42;9.52;;;4.25;;
44446;SDS011;30152;52.066;5.358;2023-07-09T13:06:29;8.77;;;4.00;;
44446;SDS011;30152;52.066;5.358;2023-07-09T13:08:59;8.55;;;4.38;;
44446;SDS011;30152;52.066;5.358;2023-07-09T13:11:31;8.65;;;4.00;;
44446;SDS011;30152;52.066;5.358;2023-07-09T13:14:01;9.90;;;4.55;;
44446;SDS011;30152;52.066;5.358;2023-07-09T13:16:28;9.73;;;4.22;;
44446;SDS011;30152;52.066;5.358;2023-07-09T13:18:55;7.75;;;3.60;;
44446;SDS011;30152;52.066;5.358;2023-07-09T13:21:21;7.40;;;3.83;;
44446;SDS011;30152;52.066;5.358;2023-07-09T13:23:47;9.18;;;4.47;;
44446;SDS011;30152;52.066;5.358;2023-07-09T13:26:14;9.32;;;4.88;;
44446;SDS011;30152;52.066;5.358;2023-07-09T13:28:41;8.93;;;4.95;;
44446;SDS011;30152;52.066;5.358;2023-07-09T13:31:15;9.35;;;5.32;;
44446;SDS011;30152;52.066;5.358;2023-07-09T13:34:04;11.55;;;4.88;;
44446;SDS011;30152;52.066;5.358;2023-07-09T13:36:33;10.90;;;5.25;;
44446;SDS011;30152;52.066;5.358;2023-07-09T13:38:59;13.38;;;5.07;;
44446;SDS011;30152;52.066;5.358;2023-07-09T13:41:25;10.40;;;4.88;;
44446;SDS011;30152;52.066;5.358;2023-07-09T13:43:51;10.18;;;4.78;;
44446;SDS011;30152;52.066;5.358;2023-07-09T13:46:16;9.13;;;4.30;;
44446;SDS011;30152;52.066;5.358;2023-07-09T13:48:42;9.07;;;4.78;;
44446;SDS011;30152;52.066;5.358;2023-07-09T13:51:17;11.20;;;4.40;;
44446;SDS011;30152;52.066;5.358;2023-07-09T13:53:45;9.68;;;4.78;;
44446;SDS011;30152;52.066;5.358;2023-07-09T13:56:11;6.93;;;3.70;;
44446;SDS011;30152;52.066;5.358;2023-07-09T13:58:36;9.55;;;3.40;;
44446;SDS011;30152;52.066;5.358;2023-07-09T14:01:09;7.10;;;3.42;;
44446;SDS011;30152;52.066;5.358;2023-07-09T14:06:12;7.05;;;2.38;;
44446;SDS011;30152;52.066;5.358;2023-07-09T14:08:39;9.25;;;2.53;;
44446;SDS011;30152;52.066;5.358;2023-07-09T14:11:08;8.60;;;2.80;;
44446;SDS011;30152;52.066;5.358;2023-07-09T14:13:38;9.70;;;2.58;;
44446;SDS011;30152;52.066;5.358;2023-07-09T14:16:05;6.05;;;2.47;;
44446;SDS011;30152;52.066;5.358;2023-07-09T14:18:33;7.35;;;3.10;;
44446;SDS011;30152;52.066;5.358;2023-07-09T14:20:59;7.28;;;2.90;;
44446;SDS011;30152;52.066;5.358;2023-07-09T14:23:25;10.52;;;3.20;;
44446;SDS011;30152;52.066;5.358;2023-07-09T14:25:50;6.38;;;2.63;;
44446;SDS011;30152;52.066;5.358;2023-07-09T14:28:17;8.45;;;2.67;;
44446;SDS011;30152;52.066;5.358;2023-07-09T14:30:45;7.45;;;2.70;;
44446;SDS011;30152;52.066;5.358;2023-07-09T14:33:15;8.95;;;2.92;;
44446;SDS011;30152;52.066;5.358;2023-07-09T14:35:45;7.20;;;2.92;;
44446;SDS011;30152;52.066;5.358;2023-07-09T14:38:22;7.93;;;3.25;;
44446;SDS011;30152;52.066;5.358;2023-07-09T14:40:49;7.90;;;3.05;;
44446;SDS011;30152;52.066;5.358;2023-07-09T14:43:16;7.70;;;3.60;;
44446;SDS011;30152;52.066;5.358;2023-07-09T14:45:42;10.35;;;3.40;;
44446;SDS011;30152;52.066;5.358;2023-07-09T14:48:09;11.10;;;3.13;;
44446;SDS011;30152;52.066;5.358;2023-07-09T14:50:42;12.25;;;3.47;;
44446;SDS011;30152;52.066;5.358;2023-07-09T14:53:15;18.08;;;4.90;;
44446;SDS011;30152;52.066;5.358;2023-07-09T14:55:52;13.02;;;4.05;;
44446;SDS011;30152;52.066;5.358;2023-07-09T14:58:19;11.35;;;4.30;;
44446;SDS011;30152;52.066;5.358;2023-07-09T15:00:47;15.60;;;4.45;;
44446;SDS011;30152;52.066;5.358;2023-07-09T15:03:15;12.82;;;4.35;;
44446;SDS011;30152;52.066;5.358;2023-07-09T15:05:50;12.80;;;4.45;;
44446;SDS011;30152;52.066;5.358;2023-07-09T15:08:17;14.63;;;4.28;;
44446;SDS011;30152;52.066;5.358;2023-07-09T15:10:47;14.00;;;4.70;;
44446;SDS011;30152;52.066;5.358;2023-07-09T15:13:18;13.63;;;5.10;;
44446;SDS011;30152;52.066;5.358;2023-07-09T15:15:50;14.63;;;5.15;;
44446;SDS011;30152;52.066;5.358;2023-07-09T15:18:15;13.57;;;6.47;;
44446;SDS011;30152;52.066;5.358;2023-07-09T15:21:08;19.08;;;6.35;;
44446;SDS011;30152;52.066;5.358;2023-07-09T15:23:36;13.05;;;5.10;;
44446;SDS011;30152;52.066;5.358;2023-07-09T15:26:10;12.95;;;5.07;;
44446;SDS011;30152;52.066;5.358;2023-07-09T15:28:38;12.75;;;5.35;;
44446;SDS011;30152;52.066;5.358;2023-07-09T15:31:04;11.80;;;4.75;;
44446;SDS011;30152;52.066;5.358;2023-07-09T15:33:31;11.02;;;4.47;;
44446;SDS011;30152;52.066;5.358;2023-07-09T15:35:57;14.98;;;5.88;;
44446;SDS011;30152;52.066;5.358;2023-07-09T15:38:30;13.00;;;5.30;;
44446;SDS011;30152;52.066;5.358;2023-07-09T15:40:57;11.50;;;5.57;;
44446;SDS011;30152;52.066;5.358;2023-07-09T15:43:23;12.20;;;5.35;;
44446;SDS011;30152;52.066;5.358;2023-07-09T15:45:50;14.30;;;5.65;;
44446;SDS011;30152;52.066;5.358;2023-07-09T15:50:59;16.65;;;6.80;;
44446;SDS011;30152;52.066;5.358;2023-07-09T15:53:29;11.60;;;6.38;;
44446;SDS011;30152;52.066;5.358;2023-07-09T15:55:59;13.85;;;7.15;;
44446;SDS011;30152;52.066;5.358;2023-07-09T15:58:27;17.67;;;7.25;;
44446;SDS011;30152;52.066;5.358;2023-07-09T16:01:00;15.50;;;7.25;;
44446;SDS011;30152;52.066;5.358;2023-07-09T16:03:26;14.30;;;7.10;;
44446;SDS011;30152;52.066;5.358;2023-07-09T16:05:51;15.13;;;8.05;;
44446;SDS011;30152;52.066;5.358;2023-07-09T16:08:17;17.65;;;7.80;;
44446;SDS011;30152;52.066;5.358;2023-07-09T16:10:42;14.05;;;7.45;;
44446;SDS011;30152;52.066;5.358;2023-07-09T16:13:14;12.65;;;7.00;;
44446;SDS011;30152;52.066;5.358;2023-07-09T16:15:45;14.15;;;7.50;;
44446;SDS011;30152;52.066;5.358;2023-07-09T16:18:11;15.95;;;7.85;;
44446;SDS011;30152;52.066;5.358;2023-07-09T16:20:36;15.25;;;7.43;;
44446;SDS011;30152;52.066;5.358;2023-07-09T16:23:02;15.60;;;8.40;;
44446;SDS011;30152;52.066;5.358;2023-07-09T16:25:36;18.20;;;8.95;;
44446;SDS011;30152;52.066;5.358;2023-07-09T16:28:02;13.00;;;7.65;;
44446;SDS011;30152;52.066;5.358;2023-07-09T16:30:29;18.77;;;8.70;;
44446;SDS011;30152;52.066;5.358;2023-07-09T16:32:55;13.10;;;7.35;;
44446;SDS011;30152;52.066;5.358;2023-07-09T16:35:22;14.43;;;8.13;;
44446;SDS011;30152;52.066;5.358;2023-07-09T16:37:50;22.85;;;9.43;;
44446;SDS011;30152;52.066;5.358;2023-07-09T16:40:17;15.75;;;7.75;;
44446;SDS011;30152;52.066;5.358;2023-07-09T16:42:47;16.67;;;9.45;;
44446;SDS011;30152;52.066;5.358;2023-07-09T16:45:15;13.75;;;8.25;;
44446;SDS011;30152;52.066;5.358;2023-07-09T16:47:42;13.10;;;8.27;;
44446;SDS011;30152;52.066;5.358;2023-07-09T16:50:29;13.52;;;7.30;;
44446;SDS011;30152;52.066;5.358;2023-07-09T16:52:54;13.85;;;7.28;;
44446;SDS011;30152;52.066;5.358;2023-07-09T16:55:24;13.00;;;7.38;;
44446;SDS011;30152;52.066;5.358;2023-07-09T16:57:54;11.85;;;6.03;;
44446;SDS011;30152;52.066;5.358;2023-07-09T17:00:26;11.48;;;6.60;;
44446;SDS011;30152;52.066;5.358;2023-07-09T17:02:54;10.63;;;5.97;;
44446;SDS011;30152;52.066;5.358;2023-07-09T17:05:25;9.95;;;4.85;;
44446;SDS011;30152;52.066;5.358;2023-07-09T17:07:51;11.77;;;5.00;;
44446;SDS011;30152;52.066;5.358;2023-07-09T17:10:17;11.52;;;5.32;;
44446;SDS011;30152;52.066;5.358;2023-07-09T17:12:43;13.20;;;5.53;;
44446;SDS011;30152;52.066;5.358;2023-07-09T17:15:20;11.13;;;5.70;;
44446;SDS011;30152;52.066;5.358;2023-07-09T17:17:49;12.27;;;5.55;;
44446;SDS011;30152;52.066;5.358;2023-07-09T17:20:17;11.57;;;5.13;;
44446;SDS011;30152;52.066;5.358;2023-07-09T17:22:43;10.65;;;5.13;;
44446;SDS011;30152;52.066;5.358;2023-07-09T17:27:55;9.40;;;4.78;;
44446;SDS011;30152;52.066;5.358;2023-07-09T17:30:25;9.43;;;3.88;;
44446;SDS011;30152;52.066;5.358;2023-07-09T17:32:52;8.65;;;3.78;;
44446;SDS011;30152;52.066;5.358;2023-07-09T17:35:18;10.45;;;3.97;;
44446;SDS011;30152;52.066;5.358;2023-07-09T17:37:48;8.20;;;3.83;;
44446;SDS011;30152;52.066;5.358;2023-07-09T17:42:52;10.05;;;4.57;;
44446;SDS011;30152;52.066;5.358;2023-07-09T17:45:20;8.52;;;3.97;;
44446;SDS011;30152;52.066;5.358;2023-07-09T17:47:46;10.05;;;4.63;;
44446;SDS011;30152;52.066;5.358;2023-07-09T17:50:22;9.70;;;4.40;;
44446;SDS011;30152;52.066;5.358;2023-07-09T17:52:50;13.88;;;5.03;;
44446;SDS011;30152;52.066;5.358;2023-07-09T17:55:17;9.60;;;4.40;;
44446;SDS011;30152;52.066;5.358;2023-07-09T17:57:44;9.52;;;4.30;;
44446;SDS011;30152;52.066;5.358;2023-07-09T18:00:18;10.98;;;4.55;;
44446;SDS011;30152;52.066;5.358;2023-07-09T18:02:48;10.15;;;4.05;;
44446;SDS011;30152;52.066;5.358;2023-07-09T18:05:20;10.07;;;4.72;;
44446;SDS011;30152;52.066;5.358;2023-07-09T18:07:47;9.55;;;4.90;;
44446;SDS011;30152;52.066;5.358;2023-07-09T18:10:13;14.73;;;4.75;;
44446;SDS011;30152;52.066;5.358;2023-07-09T18:12:40;9.38;;;4.55;;
44446;SDS011;30152;52.066;5.358;2023-07-09T18:15:08;9.98;;;4.43;;
44446;SDS011;30152;52.066;5.358;2023-07-09T18:17:43;9.20;;;4.35;;
44446;SDS011;30152;52.066;5.358;2023-07-09T18:20:16;11.75;;;6.32;;
44446;SDS011;30152;52.066;5.358;2023-07-09T18:22:43;8.13;;;4.57;;
44446;SDS011;30152;52.066;5.358;2023-07-09T18:25:08;9.48;;;4.32;;
44446;SDS011;30152;52.066;5.358;2023-07-09T18:27:37;10.07;;;5.25;;
44446;SDS011;30152;52.066;5.358;2023-07-09T18:30:06;11.75;;;5.32;;
44446;SDS011;30152;52.066;5.358;2023-07-09T18:32:40;11.93;;;4.95;;
44446;SDS011;30152;52.066;5.358;2023-07-09T18:38:03;11.00;;;4.40;;
44446;SDS011;30152;52.066;5.358;2023-07-09T18:40:35;8.88;;;4.53;;
44446;SDS011;30152;52.066;5.358;2023-07-09T18:43:04;10.10;;;4.40;;
44446;SDS011;30152;52.066;5.358;2023-07-09T18:45:38;10.25;;;4.78;;
44446;SDS011;30152;52.066;5.358;2023-07-09T18:48:20;11.52;;;5.18;;
44446;SDS011;30152;52.066;5.358;2023-07-09T18:50:48;9.27;;;4.05;;
44446;SDS011;30152;52.066;5.358;2023-07-09T18:53:17;11.02;;;4.90;;
44446;SDS011;30152;52.066;5.358;2023-07-09T18:55:47;9.13;;;4.78;;
44446;SDS011;30152;52.066;5.358;2023-07-09T18:58:16;11.15;;;4.35;;
44446;SDS011;30152;52.066;5.358;2023-07-09T19:00:44;10.05;;;5.32;;
44446;SDS011;30152;52.066;5.358;2023-07-09T19:03:12;11.60;;;5.07;;
44446;SDS011;30152;52.066;5.358;2023-07-09T19:05:43;10.77;;;5.32;;
44446;SDS011;30152;52.066;5.358;2023-07-09T19:08:14;10.35;;;5.38;;
44446;SDS011;30152;52.066;5.358;2023-07-09T19:10:45;9.32;;;4.75;;
44446;SDS011;30152;52.066;5.358;2023-07-09T19:13:10;9.48;;;4.50;;
44446;SDS011;30152;52.066;5.358;2023-07-09T19:15:36;12.48;;;5.97;;
44446;SDS011;30152;52.066;5.358;2023-07-09T19:18:03;12.23;;;5.00;;
44446;SDS011;30152;52.066;5.358;2023-07-09T19:20:31;8.52;;;4.78;;
44446;SDS011;30152;52.066;5.358;2023-07-09T19:22:57;9.93;;;5.03;;
44446;SDS011;30152;52.066;5.358;2023-07-09T19:25:25;10.57;;;5.45;;
44446;SDS011;30152;52.066;5.358;2023-07-09T19:27:54;10.00;;;5.43;;
44446;SDS011;30152;52.066;5.358;2023-07-09T19:30:21;11.20;;;5.35;;
44446;SDS011;30152;52.066;5.358;2023-07-09T19:32:52;9.68;;;5.30;;
44446;SDS011;30152;52.066;5.358;2023-07-09T19:35:22;13.90;;;6.38;;
44446;SDS011;30152;52.066;5.358;2023-07-09T19:37:49;11.88;;;6.50;;
44446;SDS011;30152;52.066;5.358;2023-07-09T19:42:46;12.23;;;5.93;;
44446;SDS011;30152;52.066;5.358;2023-07-09T19:45:13;11.85;;;6.47;;
44446;SDS011;30152;52.066;5.358;2023-07-09T19:47:39;12.95;;;6.88;;
44446;SDS011;30152;52.066;5.358;2023-07-09T19:50:14;11.57;;;6.72;;
44446;SDS011;30152;52.066;5.358;2023-07-09T19:52:49;11.55;;;6.93;;
44446;SDS011;30152;52.066;5.358;2023-07-09T19:55:19;11.98;;;6.38;;
44446;SDS011;30152;52.066;5.358;2023-07-09T19:57:47;11.75;;;6.78;;
44446;SDS011;30152;52.066;5.358;2023-07-09T20:00:14;13.90;;;7.50;;
44446;SDS011;30152;52.066;5.358;2023-07-09T20:02:40;12.45;;;6.68;;
44446;SDS011;30152;52.066;5.358;2023-07-09T20:05:27;16.70;;;7.90;;
44446;SDS011;30152;52.066;5.358;2023-07-09T20:08:10;15.02;;;8.48;;
44446;SDS011;30152;52.066;5.358;2023-07-09T20:10:39;15.77;;;7.30;;
44446;SDS011;30152;52.066;5.358;2023-07-09T20:13:07;14.60;;;7.47;;
44446;SDS011;30152;52.066;5.358;2023-07-09T20:15:37;14.70;;;8.20;;
44446;SDS011;30152;52.066;5.358;2023-07-09T20:18:21;14.80;;;8.07;;
44446;SDS011;30152;52.066;5.358;2023-07-09T20:20:50;13.77;;;7.43;;
44446;SDS011;30152;52.066;5.358;2023-07-09T20:23:17;14.05;;;7.63;;
44446;SDS011;30152;52.066;5.358;2023-07-09T20:25:43;15.38;;;8.10;;
44446;SDS011;30152;52.066;5.358;2023-07-09T20:28:17;16.05;;;7.72;;
44446;SDS011;30152;52.066;5.358;2023-07-09T20:30:51;14.45;;;7.43;;
44446;SDS011;30152;52.066;5.358;2023-07-09T20:33:18;14.93;;;7.97;;
44446;SDS011;30152;52.066;5.358;2023-07-09T20:35:45;17.08;;;7.90;;
44446;SDS011;30152;52.066;5.358;2023-07-09T20:38:14;14.32;;;8.48;;
44446;SDS011;30152;52.066;5.358;2023-07-09T20:40:42;14.75;;;7.97;;
44446;SDS011;30152;52.066;5.358;2023-07-09T20:43:42;15.07;;;8.57;;
44446;SDS011;30152;52.066;5.358;2023-07-09T20:46:02;12.20;;;8.05;;
44446;SDS011;30152;52.066;5.358;2023-07-09T20:48:28;17.35;;;8.82;;
44446;SDS011;30152;52.066;5.358;2023-07-09T20:50:54;13.88;;;7.15;;
44446;SDS011;30152;52.066;5.358;2023-07-09T20:53:21;19.17;;;8.48;;
44446;SDS011;30152;52.066;5.358;2023-07-09T20:55:48;13.68;;;7.80;;
44446;SDS011;30152;52.066;5.358;2023-07-09T20:58:17;15.68;;;7.80;;
44446;SDS011;30152;52.066;5.358;2023-07-09T21:00:46;14.32;;;8.27;;
44446;SDS011;30152;52.066;5.358;2023-07-09T21:03:13;16.38;;;7.78;;
44446;SDS011;30152;52.066;5.358;2023-07-09T21:05:41;16.50;;;8.32;;
44446;SDS011;30152;52.066;5.358;2023-07-09T21:08:13;18.10;;;8.10;;
44446;SDS011;30152;52.066;5.358;2023-07-09T21:10:42;18.90;;;8.85;;
44446;SDS011;30152;52.066;5.358;2023-07-09T21:13:10;17.50;;;8.00;;
44446;SDS011;30152;52.066;5.358;2023-07-09T21:15:41;14.07;;;8.40;;
44446;SDS011;30152;52.066;5.358;2023-07-09T21:18:16;14.25;;;7.82;;
44446;SDS011;30152;52.066;5.358;2023-07-09T21:20:43;15.57;;;8.00;;
44446;SDS011;30152;52.066;5.358;2023-07-09T21:23:17;13.65;;;8.80;;
44446;SDS011;30152;52.066;5.358;2023-07-09T21:25:44;14.93;;;8.10;;
44446;SDS011;30152;52.066;5.358;2023-07-09T21:28:10;13.63;;;7.93;;
44446;SDS011;30152;52.066;5.358;2023-07-09T21:30:36;15.32;;;7.85;;
44446;SDS011;30152;52.066;5.358;2023-07-09T21:33:02;11.85;;;7.20;;
